sensor_id;sensor_type;location;lat;lon;timestamp;P1;durP1;ratioP1;P2;durP2;ratioP2
26981;SDS011;14533;50.848;4.380;2022-08-24T00:00:14;8.32;;;3.90;;
26981;SDS011;14533;50.848;4.380;2022-08-24T00:02:42;7.38;;;3.90;;
26981;SDS011;14533;50.848;4.380;2022-08-24T00:05:08;7.82;;;3.10;;
26981;SDS011;14533;50.848;4.380;2022-08-24T00:07:34;8.55;;;3.88;;
26981;SDS011;14533;50.848;4.380;2022-08-24T00:10:00;6.10;;;4.50;;
26981;SDS011;14533;50.848;4.380;2022-08-24T00:12:27;10.27;;;4.57;;
26981;SDS011;14533;50.848;4.380;2022-08-24T00:14:53;6.47;;;4.07;;
26981;SDS011;14533;50.848;4.380;2022-08-24T00:17:19;7.15;;;4.30;;
26981;SDS011;14533;50.848;4.380;2022-08-24T00:19:45;9.60;;;4.88;;
26981;SDS011;14533;50.848;4.380;2022-08-24T00:22:11;9.98;;;4.82;;
26981;SDS011;14533;50.848;4.380;2022-08-24T00:24:37;10.77;;;5.05;;
26981;SDS011;14533;50.848;4.380;2022-08-24T00:27:03;6.30;;;4.50;;
26981;SDS011;14533;50.848;4.380;2022-08-24T00:29:30;8.55;;;4.50;;
26981;SDS011;14533;50.848;4.380;2022-08-24T00:31:56;9.32;;;5.07;;
26981;SDS011;14533;50.848;4.380;2022-08-24T00:34:22;5.40;;;4.88;;
26981;SDS011;14533;50.848;4.380;2022-08-24T00:36:48;8.48;;;4.85;;
26981;SDS011;14533;50.848;4.380;2022-08-24T00:39:14;7.97;;;5.03;;
26981;SDS011;14533;50.848;4.380;2022-08-24T00:41:41;5.90;;;4.35;;
26981;SDS011;14533;50.848;4.380;2022-08-24T00:44:09;5.65;;;4.72;;
26981;SDS011;14533;50.848;4.380;2022-08-24T00:49:09;6.07;;;4.18;;
26981;SDS011;14533;50.848;4.380;2022-08-24T00:51:44;7.70;;;4.25;;
26981;SDS011;14533;50.848;4.380;2022-08-24T00:54:15;9.60;;;4.32;;
26981;SDS011;14533;50.848;4.380;2022-08-24T00:56:50;7.40;;;4.05;;
26981;SDS011;14533;50.848;4.380;2022-08-24T00:59:21;4.97;;;3.75;;
26981;SDS011;14533;50.848;4.380;2022-08-24T01:01:52;5.65;;;4.18;;
26981;SDS011;14533;50.848;4.380;2022-08-24T01:04:29;7.50;;;4.20;;
26981;SDS011;14533;50.848;4.380;2022-08-24T01:06:59;7.55;;;3.75;;
26981;SDS011;14533;50.848;4.380;2022-08-24T01:09:25;6.30;;;4.10;;
26981;SDS011;14533;50.848;4.380;2022-08-24T01:11:50;5.85;;;4.32;;
26981;SDS011;14533;50.848;4.380;2022-08-24T01:14:17;9.85;;;3.70;;
26981;SDS011;14533;50.848;4.380;2022-08-24T01:16:44;6.18;;;3.38;;
26981;SDS011;14533;50.848;4.380;2022-08-24T01:19:49;5.72;;;3.40;;
26981;SDS011;14533;50.848;4.380;2022-08-24T01:25:11;11.60;;;4.18;;
26981;SDS011;14533;50.848;4.380;2022-08-24T01:27:37;4.60;;;3.50;;
26981;SDS011;14533;50.848;4.380;2022-08-24T01:30:07;5.82;;;3.60;;
26981;SDS011;14533;50.848;4.380;2022-08-24T01:32:34;7.35;;;3.58;;
26981;SDS011;14533;50.848;4.380;2022-08-24T01:35:00;4.65;;;3.05;;
26981;SDS011;14533;50.848;4.380;2022-08-24T01:37:26;5.93;;;3.42;;
26981;SDS011;14533;50.848;4.380;2022-08-24T01:39:53;4.93;;;3.15;;
26981;SDS011;14533;50.848;4.380;2022-08-24T01:42:21;6.82;;;3.20;;
26981;SDS011;14533;50.848;4.380;2022-08-24T01:44:47;4.25;;;3.28;;
26981;SDS011;14533;50.848;4.380;2022-08-24T01:47:14;6.60;;;3.05;;
26981;SDS011;14533;50.848;4.380;2022-08-24T01:49:42;8.15;;;3.33;;
26981;SDS011;14533;50.848;4.380;2022-08-24T01:52:11;4.82;;;3.38;;
26981;SDS011;14533;50.848;4.380;2022-08-24T01:54:43;9.43;;;3.45;;
26981;SDS011;14533;50.848;4.380;2022-08-24T01:57:09;4.53;;;2.90;;
26981;SDS011;14533;50.848;4.380;2022-08-24T01:59:35;5.20;;;3.03;;
26981;SDS011;14533;50.848;4.380;2022-08-24T02:02:11;7.78;;;3.45;;
26981;SDS011;14533;50.848;4.380;2022-08-24T02:04:43;4.40;;;3.25;;
26981;SDS011;14533;50.848;4.380;2022-08-24T02:07:09;4.15;;;3.20;;
26981;SDS011;14533;50.848;4.380;2022-08-24T02:09:35;4.50;;;3.03;;
26981;SDS011;14533;50.848;4.380;2022-08-24T02:12:01;4.57;;;3.50;;
26981;SDS011;14533;50.848;4.380;2022-08-24T02:14:28;7.10;;;3.38;;
26981;SDS011;14533;50.848;4.380;2022-08-24T02:16:54;9.75;;;3.90;;
26981;SDS011;14533;50.848;4.380;2022-08-24T02:19:21;6.50;;;3.75;;
26981;SDS011;14533;50.848;4.380;2022-08-24T02:21:47;3.78;;;3.38;;
26981;SDS011;14533;50.848;4.380;2022-08-24T02:24:12;7.15;;;4.10;;
26981;SDS011;14533;50.848;4.380;2022-08-24T02:26:38;6.53;;;3.70;;
26981;SDS011;14533;50.848;4.380;2022-08-24T02:29:04;4.53;;;3.00;;
26981;SDS011;14533;50.848;4.380;2022-08-24T02:31:31;4.72;;;2.88;;
26981;SDS011;14533;50.848;4.380;2022-08-24T02:33:57;8.70;;;3.35;;
26981;SDS011;14533;50.848;4.380;2022-08-24T02:36:23;5.07;;;3.03;;
26981;SDS011;14533;50.848;4.380;2022-08-24T02:38:49;5.63;;;3.38;;
26981;SDS011;14533;50.848;4.380;2022-08-24T02:41:15;5.10;;;3.30;;
26981;SDS011;14533;50.848;4.380;2022-08-24T02:43:41;4.95;;;3.30;;
26981;SDS011;14533;50.848;4.380;2022-08-24T02:46:06;3.95;;;3.30;;
26981;SDS011;14533;50.848;4.380;2022-08-24T02:48:32;7.78;;;3.08;;
26981;SDS011;14533;50.848;4.380;2022-08-24T02:50:58;5.38;;;4.22;;
26981;SDS011;14533;50.848;4.380;2022-08-24T02:53:24;5.25;;;3.25;;
26981;SDS011;14533;50.848;4.380;2022-08-24T02:55:50;4.88;;;3.75;;
26981;SDS011;14533;50.848;4.380;2022-08-24T02:58:16;7.10;;;3.97;;
26981;SDS011;14533;50.848;4.380;2022-08-24T03:00:43;8.00;;;4.47;;
26981;SDS011;14533;50.848;4.380;2022-08-24T03:03:10;7.63;;;4.43;;
26981;SDS011;14533;50.848;4.380;2022-08-24T03:05:37;11.50;;;4.57;;
26981;SDS011;14533;50.848;4.380;2022-08-24T03:08:03;7.07;;;5.63;;
26981;SDS011;14533;50.848;4.380;2022-08-24T03:10:29;9.27;;;6.57;;
26981;SDS011;14533;50.848;4.380;2022-08-24T03:12:55;13.18;;;7.75;;
26981;SDS011;14533;50.848;4.380;2022-08-24T03:15:23;9.20;;;6.85;;
26981;SDS011;14533;50.848;4.380;2022-08-24T03:17:49;9.90;;;7.15;;
26981;SDS011;14533;50.848;4.380;2022-08-24T03:20:16;9.35;;;6.70;;
26981;SDS011;14533;50.848;4.380;2022-08-24T03:22:43;14.10;;;9.63;;
26981;SDS011;14533;50.848;4.380;2022-08-24T03:25:13;12.85;;;9.85;;
26981;SDS011;14533;50.848;4.380;2022-08-24T03:27:40;12.95;;;8.55;;
26981;SDS011;14533;50.848;4.380;2022-08-24T03:30:07;9.15;;;7.80;;
26981;SDS011;14533;50.848;4.380;2022-08-24T03:32:36;11.70;;;7.13;;
26981;SDS011;14533;50.848;4.380;2022-08-24T03:35:02;11.13;;;9.68;;
26981;SDS011;14533;50.848;4.380;2022-08-24T03:37:28;12.38;;;9.32;;
26981;SDS011;14533;50.848;4.380;2022-08-24T03:39:54;14.23;;;9.38;;
26981;SDS011;14533;50.848;4.380;2022-08-24T03:42:19;15.52;;;9.38;;
26981;SDS011;14533;50.848;4.380;2022-08-24T03:44:45;16.52;;;10.30;;
26981;SDS011;14533;50.848;4.380;2022-08-24T03:47:11;12.63;;;9.93;;
26981;SDS011;14533;50.848;4.380;2022-08-24T03:49:37;13.23;;;10.00;;
26981;SDS011;14533;50.848;4.380;2022-08-24T03:52:03;21.38;;;11.98;;
26981;SDS011;14533;50.848;4.380;2022-08-24T03:54:30;15.35;;;11.38;;
26981;SDS011;14533;50.848;4.380;2022-08-24T03:56:56;23.42;;;12.73;;
26981;SDS011;14533;50.848;4.380;2022-08-24T03:59:23;17.65;;;13.02;;
26981;SDS011;14533;50.848;4.380;2022-08-24T04:01:49;18.48;;;14.18;;
26981;SDS011;14533;50.848;4.380;2022-08-24T04:04:15;19.35;;;14.77;;
26981;SDS011;14533;50.848;4.380;2022-08-24T04:06:40;20.33;;;14.52;;
26981;SDS011;14533;50.848;4.380;2022-08-24T04:09:08;19.55;;;14.93;;
26981;SDS011;14533;50.848;4.380;2022-08-24T04:11:35;21.75;;;16.00;;
26981;SDS011;14533;50.848;4.380;2022-08-24T04:14:01;21.10;;;15.65;;
26981;SDS011;14533;50.848;4.380;2022-08-24T04:16:27;21.20;;;16.15;;
26981;SDS011;14533;50.848;4.380;2022-08-24T04:18:55;20.52;;;14.27;;
26981;SDS011;14533;50.848;4.380;2022-08-24T04:21:26;21.70;;;15.40;;
26981;SDS011;14533;50.848;4.380;2022-08-24T04:23:53;21.23;;;15.70;;
26981;SDS011;14533;50.848;4.380;2022-08-24T04:26:20;17.67;;;14.93;;
26981;SDS011;14533;50.848;4.380;2022-08-24T04:28:47;23.88;;;14.57;;
26981;SDS011;14533;50.848;4.380;2022-08-24T04:31:13;23.20;;;15.68;;
26981;SDS011;14533;50.848;4.380;2022-08-24T04:33:39;22.90;;;14.55;;
26981;SDS011;14533;50.848;4.380;2022-08-24T04:36:06;21.80;;;14.07;;
26981;SDS011;14533;50.848;4.380;2022-08-24T04:38:34;20.27;;;13.98;;
26981;SDS011;14533;50.848;4.380;2022-08-24T04:41:02;18.73;;;12.68;;
26981;SDS011;14533;50.848;4.380;2022-08-24T04:43:29;19.13;;;13.02;;
26981;SDS011;14533;50.848;4.380;2022-08-24T04:45:55;18.00;;;13.15;;
26981;SDS011;14533;50.848;4.380;2022-08-24T04:48:21;18.55;;;13.10;;
26981;SDS011;14533;50.848;4.380;2022-08-24T04:50:47;21.25;;;13.80;;
26981;SDS011;14533;50.848;4.380;2022-08-24T04:53:14;20.80;;;13.02;;
26981;SDS011;14533;50.848;4.380;2022-08-24T04:55:41;18.88;;;13.02;;
26981;SDS011;14533;50.848;4.380;2022-08-24T04:58:09;20.30;;;12.77;;
26981;SDS011;14533;50.848;4.380;2022-08-24T05:00:35;24.17;;;13.25;;
26981;SDS011;14533;50.848;4.380;2022-08-24T05:03:00;24.15;;;13.23;;
26981;SDS011;14533;50.848;4.380;2022-08-24T05:05:27;25.73;;;14.02;;
26981;SDS011;14533;50.848;4.380;2022-08-24T05:07:53;20.30;;;13.88;;
26981;SDS011;14533;50.848;4.380;2022-08-24T05:10:19;18.85;;;14.98;;
26981;SDS011;14533;50.848;4.380;2022-08-24T05:12:46;23.27;;;15.15;;
26981;SDS011;14533;50.848;4.380;2022-08-24T05:15:12;25.73;;;14.98;;
26981;SDS011;14533;50.848;4.380;2022-08-24T05:17:38;20.73;;;16.13;;
26981;SDS011;14533;50.848;4.380;2022-08-24T05:20:07;25.75;;;16.50;;
26981;SDS011;14533;50.848;4.380;2022-08-24T05:22:36;27.35;;;17.20;;
26981;SDS011;14533;50.848;4.380;2022-08-24T05:25:02;24.52;;;18.42;;
26981;SDS011;14533;50.848;4.380;2022-08-24T05:27:29;28.10;;;18.45;;
26981;SDS011;14533;50.848;4.380;2022-08-24T05:29:56;25.25;;;17.02;;
26981;SDS011;14533;50.848;4.380;2022-08-24T05:32:22;29.25;;;18.90;;
26981;SDS011;14533;50.848;4.380;2022-08-24T05:34:48;32.67;;;20.33;;
26981;SDS011;14533;50.848;4.380;2022-08-24T05:37:13;23.67;;;19.60;;
26981;SDS011;14533;50.848;4.380;2022-08-24T05:39:40;29.75;;;20.25;;
26981;SDS011;14533;50.848;4.380;2022-08-24T05:42:06;28.42;;;20.73;;
26981;SDS011;14533;50.848;4.380;2022-08-24T05:44:32;26.90;;;20.00;;
26981;SDS011;14533;50.848;4.380;2022-08-24T05:46:57;27.95;;;22.25;;
26981;SDS011;14533;50.848;4.380;2022-08-24T05:49:25;27.73;;;22.08;;
26981;SDS011;14533;50.848;4.380;2022-08-24T05:51:51;33.38;;;25.42;;
26981;SDS011;14533;50.848;4.380;2022-08-24T05:54:19;38.83;;;27.10;;
26981;SDS011;14533;50.848;4.380;2022-08-24T05:56:47;34.58;;;25.88;;
26981;SDS011;14533;50.848;4.380;2022-08-24T05:59:13;34.90;;;27.90;;
26981;SDS011;14533;50.848;4.380;2022-08-24T06:01:41;38.33;;;27.75;;
26981;SDS011;14533;50.848;4.380;2022-08-24T06:04:07;37.33;;;28.42;;
26981;SDS011;14533;50.848;4.380;2022-08-24T06:06:33;38.53;;;29.73;;
26981;SDS011;14533;50.848;4.380;2022-08-24T06:08:59;42.05;;;28.40;;
26981;SDS011;14533;50.848;4.380;2022-08-24T06:11:26;36.33;;;29.40;;
26981;SDS011;14533;50.848;4.380;2022-08-24T06:13:58;36.40;;;29.02;;
26981;SDS011;14533;50.848;4.380;2022-08-24T06:16:25;30.67;;;27.25;;
26981;SDS011;14533;50.848;4.380;2022-08-24T06:18:52;36.00;;;27.52;;
26981;SDS011;14533;50.848;4.380;2022-08-24T06:21:20;33.47;;;26.73;;
26981;SDS011;14533;50.848;4.380;2022-08-24T06:23:48;35.13;;;26.02;;
26981;SDS011;14533;50.848;4.380;2022-08-24T06:26:15;29.00;;;25.02;;
26981;SDS011;14533;50.848;4.380;2022-08-24T06:28:59;31.92;;;25.40;;
26981;SDS011;14533;50.848;4.380;2022-08-24T06:31:26;27.25;;;22.17;;
26981;SDS011;14533;50.848;4.380;2022-08-24T06:33:53;28.92;;;23.45;;
26981;SDS011;14533;50.848;4.380;2022-08-24T06:36:19;28.02;;;23.30;;
26981;SDS011;14533;50.848;4.380;2022-08-24T06:38:46;29.45;;;21.88;;
26981;SDS011;14533;50.848;4.380;2022-08-24T06:41:12;26.33;;;21.75;;
26981;SDS011;14533;50.848;4.380;2022-08-24T06:43:38;27.95;;;22.02;;
26981;SDS011;14533;50.848;4.380;2022-08-24T06:46:04;29.40;;;21.58;;
26981;SDS011;14533;50.848;4.380;2022-08-24T06:48:30;30.50;;;21.38;;
26981;SDS011;14533;50.848;4.380;2022-08-24T06:50:57;26.63;;;19.77;;
26981;SDS011;14533;50.848;4.380;2022-08-24T06:53:23;27.50;;;20.05;;
26981;SDS011;14533;50.848;4.380;2022-08-24T06:55:50;23.90;;;19.27;;
26981;SDS011;14533;50.848;4.380;2022-08-24T06:58:18;24.38;;;19.67;;
26981;SDS011;14533;50.848;4.380;2022-08-24T07:00:45;30.17;;;19.42;;
26981;SDS011;14533;50.848;4.380;2022-08-24T07:03:12;27.33;;;19.45;;
26981;SDS011;14533;50.848;4.380;2022-08-24T07:05:38;31.95;;;19.52;;
26981;SDS011;14533;50.848;4.380;2022-08-24T07:08:05;31.02;;;18.42;;
26981;SDS011;14533;50.848;4.380;2022-08-24T07:10:32;27.10;;;19.33;;
26981;SDS011;14533;50.848;4.380;2022-08-24T07:12:58;32.85;;;19.45;;
26981;SDS011;14533;50.848;4.380;2022-08-24T07:15:24;21.30;;;17.00;;
26981;SDS011;14533;50.848;4.380;2022-08-24T07:17:50;27.35;;;17.67;;
26981;SDS011;14533;50.848;4.380;2022-08-24T07:20:17;19.17;;;17.10;;
26981;SDS011;14533;50.848;4.380;2022-08-24T07:22:43;21.10;;;17.20;;
26981;SDS011;14533;50.848;4.380;2022-08-24T07:25:10;18.88;;;15.70;;
26981;SDS011;14533;50.848;4.380;2022-08-24T07:27:37;22.55;;;16.80;;
26981;SDS011;14533;50.848;4.380;2022-08-24T07:30:04;20.90;;;14.98;;
26981;SDS011;14533;50.848;4.380;2022-08-24T07:32:30;35.22;;;31.38;;
26981;SDS011;14533;50.848;4.380;2022-08-24T07:34:57;20.92;;;14.88;;
26981;SDS011;14533;50.848;4.380;2022-08-24T07:37:23;18.25;;;12.30;;
26981;SDS011;14533;50.848;4.380;2022-08-24T07:39:49;20.08;;;13.82;;
26981;SDS011;14533;50.848;4.380;2022-08-24T07:42:14;14.27;;;10.50;;
26981;SDS011;14533;50.848;4.380;2022-08-24T07:44:40;15.40;;;10.35;;
26981;SDS011;14533;50.848;4.380;2022-08-24T07:47:06;16.48;;;10.55;;
26981;SDS011;14533;50.848;4.380;2022-08-24T07:49:31;20.58;;;10.35;;
26981;SDS011;14533;50.848;4.380;2022-08-24T07:51:57;16.25;;;11.30;;
26981;SDS011;14533;50.848;4.380;2022-08-24T07:54:23;21.65;;;10.77;;
26981;SDS011;14533;50.848;4.380;2022-08-24T07:56:49;15.60;;;10.65;;
26981;SDS011;14533;50.848;4.380;2022-08-24T07:59:15;21.35;;;11.07;;
26981;SDS011;14533;50.848;4.380;2022-08-24T08:01:41;14.13;;;10.40;;
26981;SDS011;14533;50.848;4.380;2022-08-24T08:04:06;14.85;;;10.65;;
26981;SDS011;14533;50.848;4.380;2022-08-24T08:06:33;16.98;;;11.77;;
26981;SDS011;14533;50.848;4.380;2022-08-24T08:08:59;20.92;;;11.50;;
26981;SDS011;14533;50.848;4.380;2022-08-24T08:11:26;20.58;;;11.00;;
26981;SDS011;14533;50.848;4.380;2022-08-24T08:13:52;19.25;;;12.60;;
26981;SDS011;14533;50.848;4.380;2022-08-24T08:16:18;16.30;;;12.75;;
26981;SDS011;14533;50.848;4.380;2022-08-24T08:18:45;16.60;;;12.38;;
26981;SDS011;14533;50.848;4.380;2022-08-24T08:21:11;15.32;;;12.40;;
26981;SDS011;14533;50.848;4.380;2022-08-24T08:23:55;18.58;;;11.98;;
26981;SDS011;14533;50.848;4.380;2022-08-24T08:26:39;26.55;;;13.95;;
26981;SDS011;14533;50.848;4.380;2022-08-24T08:29:05;20.42;;;12.63;;
26981;SDS011;14533;50.848;4.380;2022-08-24T08:31:32;17.08;;;11.25;;
26981;SDS011;14533;50.848;4.380;2022-08-24T08:33:57;17.80;;;10.45;;
26981;SDS011;14533;50.848;4.380;2022-08-24T08:36:23;16.65;;;10.57;;
26981;SDS011;14533;50.848;4.380;2022-08-24T08:38:51;13.48;;;8.07;;
26981;SDS011;14533;50.848;4.380;2022-08-24T08:43:43;15.80;;;7.72;;
26981;SDS011;14533;50.848;4.380;2022-08-24T08:49:07;13.85;;;8.48;;
26981;SDS011;14533;50.848;4.380;2022-08-24T09:00:42;13.50;;;9.13;;
26981;SDS011;14533;50.848;4.380;2022-08-24T09:03:36;13.17;;;9.90;;
26981;SDS011;14533;50.848;4.380;2022-08-24T09:09:10;17.13;;;9.48;;
26981;SDS011;14533;50.848;4.380;2022-08-24T09:11:55;17.90;;;9.68;;
26981;SDS011;14533;50.848;4.380;2022-08-24T09:22:21;15.85;;;8.65;;
26981;SDS011;14533;50.848;4.380;2022-08-24T09:30:25;21.10;;;8.65;;
26981;SDS011;14533;50.848;4.380;2022-08-24T09:33:22;14.18;;;8.13;;
26981;SDS011;14533;50.848;4.380;2022-08-24T09:39:13;7.93;;;6.47;;
26981;SDS011;14533;50.848;4.380;2022-08-24T09:49:46;6.90;;;4.22;;
26981;SDS011;14533;50.848;4.380;2022-08-24T10:01:11;3.60;;;2.80;;
26981;SDS011;14533;50.848;4.380;2022-08-24T10:04:04;6.03;;;3.92;;
26981;SDS011;14533;50.848;4.380;2022-08-24T10:15:20;4.90;;;3.13;;
26981;SDS011;14533;50.848;4.380;2022-08-24T10:23:30;12.43;;;3.22;;
26981;SDS011;14533;50.848;4.380;2022-08-24T10:29:14;9.23;;;2.53;;
26981;SDS011;14533;50.848;4.380;2022-08-24T10:40:39;4.00;;;1.80;;
26981;SDS011;14533;50.848;4.380;2022-08-24T10:46:08;5.22;;;1.95;;
26981;SDS011;14533;50.848;4.380;2022-08-24T10:54:51;2.65;;;1.70;;
26981;SDS011;14533;50.848;4.380;2022-08-24T10:57:32;5.15;;;1.98;;
26981;SDS011;14533;50.848;4.380;2022-08-24T11:00:08;3.47;;;1.60;;
26981;SDS011;14533;50.848;4.380;2022-08-24T11:02:40;3.63;;;1.17;;
26981;SDS011;14533;50.848;4.380;2022-08-24T11:07:35;4.97;;;1.90;;
26981;SDS011;14533;50.848;4.380;2022-08-24T11:10:22;2.95;;;1.90;;
26981;SDS011;14533;50.848;4.380;2022-08-24T11:12:53;4.10;;;1.73;;
26981;SDS011;14533;50.848;4.380;2022-08-24T11:15:21;3.45;;;1.67;;
26981;SDS011;14533;50.848;4.380;2022-08-24T11:17:54;4.88;;;2.10;;
26981;SDS011;14533;50.848;4.380;2022-08-24T11:20:28;4.82;;;1.70;;
26981;SDS011;14533;50.848;4.380;2022-08-24T11:22:59;1.85;;;1.50;;
26981;SDS011;14533;50.848;4.380;2022-08-24T11:25:36;3.08;;;1.58;;
26981;SDS011;14533;50.848;4.380;2022-08-24T11:31:00;5.32;;;1.60;;
26981;SDS011;14533;50.848;4.380;2022-08-24T11:33:34;5.75;;;1.85;;
26981;SDS011;14533;50.848;4.380;2022-08-24T11:36:14;7.72;;;1.42;;
26981;SDS011;14533;50.848;4.380;2022-08-24T11:38:42;5.10;;;1.55;;
26981;SDS011;14533;50.848;4.380;2022-08-24T11:41:10;4.82;;;1.50;;
26981;SDS011;14533;50.848;4.380;2022-08-24T11:44:01;5.32;;;2.08;;
26981;SDS011;14533;50.848;4.380;2022-08-24T11:49:21;2.75;;;1.40;;
26981;SDS011;14533;50.848;4.380;2022-08-24T11:57:20;4.07;;;1.10;;
26981;SDS011;14533;50.848;4.380;2022-08-24T12:00:06;2.40;;;1.48;;
26981;SDS011;14533;50.848;4.380;2022-08-24T12:05:29;2.90;;;1.35;;
26981;SDS011;14533;50.848;4.380;2022-08-24T12:10:41;6.70;;;1.40;;
26981;SDS011;14533;50.848;4.380;2022-08-24T12:16:28;8.48;;;2.03;;
26981;SDS011;14533;50.848;4.380;2022-08-24T12:21:33;5.63;;;1.50;;
26981;SDS011;14533;50.848;4.380;2022-08-24T12:24:17;4.82;;;1.70;;
26981;SDS011;14533;50.848;4.380;2022-08-24T12:27:05;6.00;;;1.70;;
26981;SDS011;14533;50.848;4.380;2022-08-24T12:29:51;3.08;;;1.52;;
26981;SDS011;14533;50.848;4.380;2022-08-24T12:32:27;5.32;;;1.70;;
26981;SDS011;14533;50.848;4.380;2022-08-24T12:35:06;5.95;;;1.55;;
26981;SDS011;14533;50.848;4.380;2022-08-24T12:37:39;6.70;;;2.30;;
26981;SDS011;14533;50.848;4.380;2022-08-24T12:40:20;3.60;;;1.50;;
26981;SDS011;14533;50.848;4.380;2022-08-24T12:46:05;2.90;;;1.90;;
26981;SDS011;14533;50.848;4.380;2022-08-24T12:48:34;10.73;;;3.17;;
26981;SDS011;14533;50.848;4.380;2022-08-24T12:56:51;6.28;;;1.40;;
26981;SDS011;14533;50.848;4.380;2022-08-24T12:59:45;5.00;;;1.70;;
26981;SDS011;14533;50.848;4.380;2022-08-24T13:17:47;5.75;;;1.77;;
26981;SDS011;14533;50.848;4.380;2022-08-24T13:20:21;6.55;;;1.70;;
26981;SDS011;14533;50.848;4.380;2022-08-24T13:33:45;4.28;;;1.20;;
26981;SDS011;14533;50.848;4.380;2022-08-24T13:45:14;6.68;;;1.50;;
26981;SDS011;14533;50.848;4.380;2022-08-24T13:47:48;5.82;;;2.72;;
26981;SDS011;14533;50.848;4.380;2022-08-24T13:53:34;4.78;;;2.20;;
26981;SDS011;14533;50.848;4.380;2022-08-24T14:06:55;2.38;;;1.50;;
26981;SDS011;14533;50.848;4.380;2022-08-24T14:09:52;7.15;;;1.90;;
26981;SDS011;14533;50.848;4.380;2022-08-24T14:18:27;6.05;;;1.85;;
26981;SDS011;14533;50.848;4.380;2022-08-24T14:21:14;5.10;;;1.55;;
26981;SDS011;14533;50.848;4.380;2022-08-24T14:31:40;6.97;;;2.15;;
26981;SDS011;14533;50.848;4.380;2022-08-24T14:34:29;4.70;;;1.33;;
26981;SDS011;14533;50.848;4.380;2022-08-24T14:40:11;6.70;;;2.05;;
26981;SDS011;14533;50.848;4.380;2022-08-24T14:45:21;3.80;;;1.65;;
26981;SDS011;14533;50.848;4.380;2022-08-24T14:48:56;9.43;;;2.40;;
26981;SDS011;14533;50.848;4.380;2022-08-24T15:02:54;6.35;;;1.92;;
26981;SDS011;14533;50.848;4.380;2022-08-24T15:05:47;7.90;;;2.40;;
26981;SDS011;14533;50.848;4.380;2022-08-24T15:08:33;3.95;;;2.15;;
26981;SDS011;14533;50.848;4.380;2022-08-24T15:19:23;11.85;;;2.28;;
26981;SDS011;14533;50.848;4.380;2022-08-24T15:24:27;4.53;;;2.25;;
26981;SDS011;14533;50.848;4.380;2022-08-24T15:29:51;7.17;;;2.67;;
26981;SDS011;14533;50.848;4.380;2022-08-24T15:32:19;5.88;;;2.60;;
26981;SDS011;14533;50.848;4.380;2022-08-24T15:34:52;7.22;;;2.50;;
26981;SDS011;14533;50.848;4.380;2022-08-24T15:37:34;7.63;;;1.77;;
26981;SDS011;14533;50.848;4.380;2022-08-24T15:40:16;8.10;;;3.10;;
26981;SDS011;14533;50.848;4.380;2022-08-24T15:42:59;9.77;;;3.00;;
26981;SDS011;14533;50.848;4.380;2022-08-24T15:45:31;5.72;;;2.63;;
26981;SDS011;14533;50.848;4.380;2022-08-24T15:47:58;6.82;;;1.42;;
26981;SDS011;14533;50.848;4.380;2022-08-24T15:50:27;10.23;;;1.77;;
26981;SDS011;14533;50.848;4.380;2022-08-24T15:52:58;8.00;;;2.03;;
26981;SDS011;14533;50.848;4.380;2022-08-24T15:55:31;7.40;;;1.80;;
26981;SDS011;14533;50.848;4.380;2022-08-24T16:00:39;10.93;;;2.17;;
26981;SDS011;14533;50.848;4.380;2022-08-24T16:03:41;7.70;;;3.80;;
26981;SDS011;14533;50.848;4.380;2022-08-24T16:06:34;5.45;;;2.50;;
26981;SDS011;14533;50.848;4.380;2022-08-24T16:17:43;9.10;;;3.65;;
26981;SDS011;14533;50.848;4.380;2022-08-24T16:20:42;4.35;;;2.10;;
26981;SDS011;14533;50.848;4.380;2022-08-24T16:23:06;5.85;;;2.28;;
26981;SDS011;14533;50.848;4.380;2022-08-24T16:25:36;8.65;;;2.15;;
26981;SDS011;14533;50.848;4.380;2022-08-24T16:35:59;9.98;;;2.65;;
26981;SDS011;14533;50.848;4.380;2022-08-24T16:38:30;7.40;;;2.95;;
26981;SDS011;14533;50.848;4.380;2022-08-24T16:41:02;8.73;;;2.70;;
26981;SDS011;14533;50.848;4.380;2022-08-24T16:43:32;7.68;;;2.70;;
26981;SDS011;14533;50.848;4.380;2022-08-24T16:46:04;7.70;;;2.17;;
26981;SDS011;14533;50.848;4.380;2022-08-24T16:48:34;7.55;;;2.47;;
26981;SDS011;14533;50.848;4.380;2022-08-24T16:51:00;16.38;;;2.70;;
26981;SDS011;14533;50.848;4.380;2022-08-24T16:53:27;7.85;;;2.97;;
26981;SDS011;14533;50.848;4.380;2022-08-24T16:55:53;6.22;;;2.58;;
26981;SDS011;14533;50.848;4.380;2022-08-24T16:58:22;10.20;;;4.28;;
26981;SDS011;14533;50.848;4.380;2022-08-24T17:00:54;11.52;;;3.40;;
26981;SDS011;14533;50.848;4.380;2022-08-24T17:03:19;6.57;;;2.25;;
26981;SDS011;14533;50.848;4.380;2022-08-24T17:05:45;9.07;;;4.93;;
26981;SDS011;14533;50.848;4.380;2022-08-24T17:08:11;9.30;;;3.75;;
26981;SDS011;14533;50.848;4.380;2022-08-24T17:10:37;10.55;;;3.22;;
26981;SDS011;14533;50.848;4.380;2022-08-24T17:13:03;8.05;;;2.40;;
26981;SDS011;14533;50.848;4.380;2022-08-24T17:15:29;8.68;;;2.53;;
26981;SDS011;14533;50.848;4.380;2022-08-24T17:18:05;12.32;;;3.10;;
26981;SDS011;14533;50.848;4.380;2022-08-24T17:20:34;5.55;;;2.72;;
26981;SDS011;14533;50.848;4.380;2022-08-24T17:22:59;6.40;;;2.40;;
26981;SDS011;14533;50.848;4.380;2022-08-24T17:25:26;12.77;;;3.65;;
26981;SDS011;14533;50.848;4.380;2022-08-24T17:27:54;5.18;;;2.08;;
26981;SDS011;14533;50.848;4.380;2022-08-24T17:30:23;8.27;;;3.30;;
26981;SDS011;14533;50.848;4.380;2022-08-24T17:32:50;8.20;;;2.70;;
26981;SDS011;14533;50.848;4.380;2022-08-24T17:35:20;5.53;;;2.50;;
26981;SDS011;14533;50.848;4.380;2022-08-24T17:37:47;5.38;;;3.42;;
26981;SDS011;14533;50.848;4.380;2022-08-24T17:40:15;9.68;;;3.30;;
26981;SDS011;14533;50.848;4.380;2022-08-24T17:42:42;7.78;;;4.10;;
26981;SDS011;14533;50.848;4.380;2022-08-24T17:45:08;8.93;;;3.80;;
26981;SDS011;14533;50.848;4.380;2022-08-24T17:47:37;12.10;;;3.25;;
26981;SDS011;14533;50.848;4.380;2022-08-24T17:50:03;11.65;;;3.88;;
26981;SDS011;14533;50.848;4.380;2022-08-24T17:52:32;10.70;;;3.45;;
26981;SDS011;14533;50.848;4.380;2022-08-24T17:54:59;10.18;;;3.50;;
26981;SDS011;14533;50.848;4.380;2022-08-24T17:57:25;8.30;;;2.60;;
26981;SDS011;14533;50.848;4.380;2022-08-24T17:59:52;7.75;;;3.58;;
26981;SDS011;14533;50.848;4.380;2022-08-24T18:02:22;6.57;;;3.57;;
26981;SDS011;14533;50.848;4.380;2022-08-24T18:04:49;5.13;;;3.05;;
26981;SDS011;14533;50.848;4.380;2022-08-24T18:07:18;4.53;;;3.20;;
26981;SDS011;14533;50.848;4.380;2022-08-24T18:09:50;7.10;;;3.75;;
26981;SDS011;14533;50.848;4.380;2022-08-24T18:12:21;9.07;;;3.90;;
26981;SDS011;14533;50.848;4.380;2022-08-24T18:14:48;4.43;;;3.53;;
26981;SDS011;14533;50.848;4.380;2022-08-24T18:17:16;8.18;;;3.40;;
26981;SDS011;14533;50.848;4.380;2022-08-24T18:19:45;10.10;;;3.53;;
26981;SDS011;14533;50.848;4.380;2022-08-24T18:22:13;7.85;;;3.17;;
26981;SDS011;14533;50.848;4.380;2022-08-24T18:24:39;11.60;;;3.03;;
26981;SDS011;14533;50.848;4.380;2022-08-24T18:27:08;6.88;;;3.60;;
26981;SDS011;14533;50.848;4.380;2022-08-24T18:29:37;10.27;;;3.55;;
26981;SDS011;14533;50.848;4.380;2022-08-24T18:32:06;8.23;;;3.78;;
26981;SDS011;14533;50.848;4.380;2022-08-24T18:34:32;9.95;;;4.18;;
26981;SDS011;14533;50.848;4.380;2022-08-24T18:36:58;8.43;;;4.13;;
26981;SDS011;14533;50.848;4.380;2022-08-24T18:39:24;7.00;;;4.30;;
26981;SDS011;14533;50.848;4.380;2022-08-24T18:41:49;14.93;;;3.67;;
26981;SDS011;14533;50.848;4.380;2022-08-24T18:44:18;10.15;;;3.60;;
26981;SDS011;14533;50.848;4.380;2022-08-24T18:46:48;9.90;;;3.60;;
26981;SDS011;14533;50.848;4.380;2022-08-24T18:49:18;5.68;;;3.20;;
26981;SDS011;14533;50.848;4.380;2022-08-24T18:51:44;8.43;;;3.92;;